Hlavní strana
METAR-TAF:

METAR-TAF

Letiště :

Letiště Pardubice

Pardubice, Česká republika

zeměpisná šířka: 50-00-48N, zeměpisná délka: 15-44-19E, výška: 226 m

Aktuální stav počasí

Zpráva byla vytvořena před 59 minutami, v 20:00 UTC
Východojihovýchodní vítr 2 kt
Teplota 24°C
Vlhkost vzduchu 44%
Tlak 1017 hPa
Viditelnost 10 km a více
Žádná oblačnost pod 1500 m, nevyskytují se cumulonimby.

METAR: LKPD 192000Z 11002KT CAVOK 24/11 Q1017 NOSIG RMK BLU BLU

Čas: 22:59 (20:59 UTC)

Předpověď počasí

Zpráva byla vytvořena před 3 hodinami a 59 minutami, v 17:00 UTC
Předpověď platná od 19 v 18 UTC do 20 v 18 UTC
vítr z různých směrů 2 kt
Viditelnost 10 km a více
Žádná oblačnost pod 1500 m, nevyskytují se cumulonimby.
Změna
od 20 v 06 UTC do 20 v 09 UTC
Západní vítr 8 kt
Dočasný
od 20 v 08 UTC do 20 v 17 UTC
Západoseverozápadní vítr 12 kt

TAF: LKPD 191700Z 1918/2018 VRB02KT CAVOK BECMG 2006/2009 28008KT TEMPO 2008/2017 30012KT

Stav a předpovědi počasí z více než 4 000 letišť (zprávy METAR a TAF).

Červené a žluté tečky na mapě představují dostupné meteorologické stanice.

Když kurzor umístíte na tečku, zobrazí se název stanice.

Pak kliknutím zobrazíte stav a předpověď počasí.

Chcete-li změnit mapu, kliknutím na zelené tlačítko se znaménkem +mapu přiblížíte, kliknutím na zelené tlačítko se znaménkem – mapu oddálíte a kliknutím na zelené šipky přejdete na sousední mapy.


METAR-TAF: